createdAt,value
2018-01-04T00:01:12.681Z,8.10
2018-01-04T00:03:40.695Z,6.37
2018-01-04T00:06:08.748Z,6.03
2018-01-04T00:08:36.219Z,5.00
2018-01-04T00:11:03.673Z,5.90
2018-01-04T00:13:32.046Z,7.67
2018-01-04T00:15:59.492Z,5.37
2018-01-04T00:18:26.943Z,7.60
2018-01-04T00:20:54.406Z,6.80
2018-01-04T00:23:21.861Z,5.07
2018-01-04T00:25:49.324Z,6.33
2018-01-04T00:28:16.883Z,4.93
2018-01-04T00:30:44.337Z,4.70
2018-01-04T00:33:11.791Z,6.60
2018-01-04T00:35:39.248Z,4.70
2018-01-04T00:38:06.689Z,5.20
2018-01-04T00:40:34.151Z,7.60
2018-01-04T00:43:01.605Z,8.90
2018-01-04T00:45:29.077Z,5.43
2018-01-04T00:47:56.528Z,6.83
2018-01-04T00:50:23.984Z,4.57
2018-01-04T00:52:51.433Z,5.50
2018-01-04T00:55:18.901Z,6.03
2018-01-04T00:57:46.349Z,5.50
2018-01-04T01:00:13.816Z,6.17
2018-01-04T01:02:41.261Z,6.17
2018-01-04T01:05:08.728Z,9.80
2018-01-04T01:07:36.176Z,6.37
2018-01-04T01:10:03.634Z,4.80
2018-01-04T01:12:31.088Z,5.50
2018-01-04T01:14:58.566Z,4.00
2018-01-04T01:17:26.030Z,6.30
2018-01-04T01:19:53.483Z,5.70
2018-01-04T01:22:20.933Z,5.43
2018-01-04T01:24:48.585Z,4.27
2018-01-04T01:27:16.046Z,4.13
2018-01-04T01:29:43.530Z,5.93
2018-01-04T01:32:10.976Z,3.97
2018-01-04T01:34:38.424Z,4.53
2018-01-04T01:37:06.002Z,4.63
2018-01-04T01:39:33.452Z,5.33
2018-01-04T01:42:00.906Z,4.83
2018-01-04T01:44:28.357Z,3.93
2018-01-04T01:46:55.808Z,6.90
2018-01-04T01:49:23.262Z,3.13
2018-01-04T01:51:50.728Z,4.17
2018-01-04T01:54:18.176Z,3.57
2018-01-04T01:56:46.400Z,3.73
2018-01-04T01:59:13.857Z,5.27
2018-01-04T02:01:41.317Z,3.43
2018-01-04T02:04:08.772Z,4.60
2018-01-04T02:06:36.342Z,3.70
2018-01-04T02:09:03.792Z,4.03
2018-01-04T02:11:31.272Z,2.60
2018-01-04T02:13:59.497Z,2.37
2018-01-04T02:16:27.043Z,4.40
2018-01-04T02:19:06.176Z,3.43
2018-01-04T02:21:45.500Z,4.10
2018-01-04T02:24:24.796Z,4.80
2018-01-04T02:27:04.117Z,4.53
2018-01-04T02:29:43.408Z,3.07
2018-01-04T02:32:22.744Z,3.67
2018-01-04T02:35:01.961Z,5.63
2018-01-04T02:37:41.319Z,2.63
2018-01-04T02:40:20.541Z,5.17
2018-01-04T02:42:59.897Z,2.80
2018-01-04T02:45:53.816Z,2.77
2018-01-04T02:48:21.266Z,2.90
2018-01-04T02:50:48.725Z,2.60
2018-01-04T02:53:16.197Z,4.23
2018-01-04T02:55:43.644Z,3.57
2018-01-04T02:58:11.116Z,3.33
2018-01-04T03:00:38.565Z,3.17
2018-01-04T03:03:06.026Z,5.23
2018-01-04T03:05:33.472Z,2.43
2018-01-04T03:08:00.937Z,5.30
2018-01-04T03:10:28.396Z,3.60
2018-01-04T03:12:55.894Z,3.87
2018-01-04T03:15:23.341Z,2.37
2018-01-04T03:17:50.797Z,3.40
2018-01-04T03:20:18.255Z,2.90
2018-01-04T03:22:51.373Z,3.33
2018-01-04T03:25:24.541Z,3.40
2018-01-04T03:27:57.592Z,3.97
2018-01-04T03:30:30.774Z,2.60
2018-01-04T03:33:03.903Z,3.00
2018-01-04T03:35:36.901Z,3.70
2018-01-04T03:38:10.057Z,3.77
2018-01-04T03:40:43.211Z,10.17
2018-01-04T03:43:16.265Z,13.80
2018-01-04T03:45:49.469Z,10.13
2018-01-04T03:48:22.661Z,9.53
2018-01-04T04:15:18.805Z,7.23
2018-01-04T04:17:46.262Z,7.47
2018-01-04T04:20:13.727Z,5.83
2018-01-04T04:22:41.317Z,4.70
2018-01-04T04:25:08.772Z,6.70
2018-01-04T04:27:36.219Z,7.53
2018-01-04T04:30:03.676Z,10.90
2018-01-04T04:32:31.125Z,7.83
2018-01-04T04:34:58.576Z,9.87
2018-01-04T04:37:26.045Z,8.87
2018-01-04T04:39:53.522Z,7.63
2018-01-04T04:42:20.974Z,7.13
2018-01-04T04:44:48.426Z,7.40
2018-01-04T04:47:15.897Z,6.37
2018-01-04T04:49:43.641Z,5.87
2018-01-04T04:52:11.097Z,6.47
2018-01-04T04:54:38.562Z,9.37
2018-01-04T04:57:06.019Z,5.17
2018-01-04T04:59:33.465Z,4.43
2018-01-04T05:02:00.920Z,7.70
2018-01-04T05:04:28.381Z,5.87
2018-01-04T05:06:55.841Z,5.93
2018-01-04T05:09:23.322Z,4.13
2018-01-04T05:11:50.786Z,6.80
2018-01-04T05:14:18.392Z,6.53
2018-01-04T05:16:45.849Z,5.47
2018-01-04T05:19:13.304Z,7.00
2018-01-04T05:21:40.781Z,7.50
2018-01-04T05:24:08.267Z,6.57
2018-01-04T05:26:35.717Z,7.30
2018-01-04T05:29:03.946Z,11.00
2018-01-04T05:31:31.404Z,5.67
2018-01-04T05:33:58.852Z,6.10
2018-01-04T05:36:26.317Z,5.97
2018-01-04T05:38:53.773Z,6.43
2018-01-04T05:41:21.266Z,7.70
2018-01-04T05:43:48.717Z,4.83
2018-01-04T05:46:16.172Z,6.43
2018-01-04T05:48:43.638Z,7.10
2018-01-04T05:51:11.088Z,6.73
2018-01-04T05:53:38.553Z,7.50
2018-01-04T05:56:06.013Z,5.23
2018-01-04T05:58:33.466Z,5.93
2018-01-04T06:01:00.936Z,5.40
2018-01-04T06:03:28.392Z,7.17
2018-01-04T06:05:55.853Z,6.07
2018-01-04T06:08:23.309Z,6.67
2018-01-04T06:10:50.757Z,8.50
2018-01-04T06:13:18.233Z,20.20
2018-01-04T06:15:45.889Z,9.83
2018-01-04T06:18:13.356Z,6.33
2018-01-04T06:20:40.797Z,7.27
2018-01-04T06:23:08.285Z,10.33
2018-01-04T06:25:35.741Z,5.80
2018-01-04T06:28:03.267Z,7.03
2018-01-04T06:30:30.715Z,8.07
2018-01-04T06:32:58.165Z,5.80
2018-01-04T06:35:25.631Z,15.17
2018-01-04T06:37:53.089Z,23.47
2018-01-04T06:40:20.689Z,8.80
2018-01-04T06:42:48.282Z,14.10
2018-01-04T06:45:15.872Z,16.27
2018-01-04T06:47:43.321Z,11.07
2018-01-04T06:50:10.824Z,12.57
2018-01-04T06:52:38.364Z,14.03
2018-01-04T06:55:05.819Z,8.63
2018-01-04T06:57:33.279Z,13.33
2018-01-04T07:00:00.748Z,10.87
2018-01-04T07:02:28.217Z,8.53
2018-01-04T07:04:55.686Z,6.37
2018-01-04T07:07:23.148Z,8.03
2018-01-04T07:09:50.611Z,8.93
2018-01-04T07:12:18.092Z,8.47
2018-01-04T07:14:45.536Z,7.53
2018-01-04T07:17:13.221Z,5.43
2018-01-04T07:19:40.667Z,6.53
2018-01-04T07:22:08.130Z,6.23
2018-01-04T07:24:35.578Z,6.87
2018-01-04T07:27:03.037Z,7.50
2018-01-04T07:29:30.487Z,8.10
2018-01-04T07:31:57.953Z,9.03
2018-01-04T07:34:25.400Z,6.63
2018-01-04T07:36:52.862Z,6.17
2018-01-04T07:39:20.330Z,6.83
2018-01-04T07:41:47.796Z,7.33
2018-01-04T07:44:15.252Z,10.47
2018-01-04T07:46:42.705Z,5.73
2018-01-04T07:49:10.152Z,4.87
2018-01-04T07:51:37.604Z,3.70
2018-01-04T07:54:05.085Z,6.50
2018-01-04T07:56:32.531Z,8.83
2018-01-04T07:58:59.989Z,7.17
2018-01-04T08:01:27.438Z,6.50
2018-01-04T08:03:54.912Z,4.53
2018-01-04T08:06:22.348Z,4.57
2018-01-04T08:08:49.832Z,4.83
2018-01-04T08:11:17.273Z,5.13
2018-01-04T08:13:44.795Z,5.27
2018-01-04T08:16:12.273Z,5.57
2018-01-04T08:18:39.750Z,5.90
2018-01-04T08:21:07.198Z,9.03
2018-01-04T08:23:34.655Z,3.57
2018-01-04T08:26:02.109Z,4.07
2018-01-04T08:28:29.565Z,4.70
2018-01-04T08:30:57.025Z,5.27
2018-01-04T08:33:24.637Z,9.30
2018-01-04T08:35:52.094Z,5.60
2018-01-04T08:38:19.551Z,4.07
2018-01-04T08:40:47.013Z,5.37
2018-01-04T08:43:14.469Z,3.43
2018-01-04T08:45:41.921Z,3.93
2018-01-04T08:48:09.381Z,5.40
2018-01-04T08:50:36.849Z,2.67
2018-01-04T08:53:04.310Z,3.73
2018-01-04T08:55:31.799Z,5.70
2018-01-04T08:57:59.247Z,2.00
2018-01-04T09:00:26.717Z,5.17
2018-01-04T09:02:54.171Z,3.40
2018-01-04T09:05:21.624Z,5.07
2018-01-04T09:07:49.872Z,3.53
2018-01-04T09:10:17.313Z,2.53
2018-01-04T09:12:44.774Z,6.37
2018-01-04T09:15:12.315Z,4.80
2018-01-04T09:17:40.537Z,4.13
2018-01-04T09:20:07.984Z,3.10
2018-01-04T09:22:35.856Z,5.03
2018-01-04T09:25:03.300Z,3.23
2018-01-04T09:27:30.765Z,3.50
2018-01-04T09:29:58.221Z,1.70
2018-01-04T09:32:25.912Z,3.87
2018-01-04T09:34:53.357Z,3.80
2018-01-04T09:37:20.831Z,2.37
2018-01-04T09:39:48.287Z,1.83
2018-01-04T09:42:15.737Z,3.07
2018-01-04T09:44:43.373Z,3.07
2018-01-04T09:47:10.825Z,4.37
2018-01-04T09:49:38.428Z,3.30
2018-01-04T09:52:07.003Z,2.90
2018-01-04T09:54:35.687Z,3.67
2018-01-04T09:57:03.129Z,2.10
2018-01-04T09:59:30.587Z,4.70
2018-01-04T10:01:58.045Z,2.70
2018-01-04T10:04:25.510Z,2.30
2018-01-04T10:06:52.957Z,2.50
2018-01-04T10:09:20.420Z,2.97
2018-01-04T10:11:47.869Z,2.47
2018-01-04T10:14:15.337Z,2.37
2018-01-04T10:16:42.785Z,2.17
2018-01-04T10:19:10.240Z,3.37
2018-01-04T10:21:37.758Z,2.20
2018-01-04T10:24:05.563Z,2.67
2018-01-04T10:26:33.011Z,1.90
2018-01-04T10:29:00.490Z,3.63
2018-01-04T10:31:27.933Z,1.83
2018-01-04T10:33:56.038Z,2.27
2018-01-04T10:36:23.667Z,2.77
2018-01-04T10:38:51.126Z,2.83
2018-01-04T10:41:18.608Z,1.90
2018-01-04T10:43:46.069Z,2.00
2018-01-04T10:46:13.533Z,2.30
2018-01-04T10:48:40.981Z,3.50
2018-01-04T10:51:08.438Z,3.00
2018-01-04T10:53:35.894Z,1.80
2018-01-04T10:56:03.354Z,2.17
2018-01-04T10:58:30.807Z,1.40
2018-01-04T11:00:58.385Z,3.60
2018-01-04T11:03:25.833Z,2.77
2018-01-04T11:05:53.332Z,2.40
2018-01-04T11:08:20.784Z,2.33
2018-01-04T11:10:48.405Z,3.10
2018-01-04T11:13:15.994Z,2.07
2018-01-04T11:15:43.451Z,2.93
2018-01-04T11:18:10.892Z,2.73
2018-01-04T11:20:38.688Z,2.37
2018-01-04T11:23:06.160Z,2.60
2018-01-04T11:25:33.889Z,2.07
2018-01-04T11:28:01.347Z,1.80
2018-01-04T11:30:28.808Z,2.00
2018-01-04T11:32:56.265Z,2.03
2018-01-04T11:35:23.726Z,1.93
2018-01-04T11:37:51.225Z,2.53
2018-01-04T11:40:18.642Z,3.10
2018-01-04T11:42:46.093Z,1.47
2018-01-04T11:45:13.557Z,1.50
2018-01-04T11:47:41.035Z,5.00
2018-01-04T11:50:08.481Z,1.23
2018-01-04T11:52:35.937Z,2.10
2018-01-04T11:55:03.388Z,2.90
2018-01-04T11:57:30.852Z,1.13
2018-01-04T11:59:58.303Z,2.70
2018-01-04T12:02:25.753Z,2.57
2018-01-04T12:04:53.210Z,2.27
2018-01-04T12:07:20.674Z,2.13
2018-01-04T12:09:48.121Z,1.73
2018-01-04T12:12:15.679Z,2.90
2018-01-04T12:14:43.177Z,2.73
2018-01-04T12:17:10.628Z,4.60
2018-01-04T12:19:38.067Z,1.30
2018-01-04T12:22:05.534Z,6.00
2018-01-04T12:24:33.005Z,9.87
2018-01-04T12:27:00.629Z,4.67
2018-01-04T12:29:28.125Z,13.00
2018-01-04T12:31:55.622Z,8.53
2018-01-04T12:34:23.125Z,11.67
2018-01-04T12:36:50.679Z,8.13
2018-01-04T12:39:18.141Z,3.97
2018-01-04T12:41:45.590Z,2.63
2018-01-04T12:44:13.048Z,5.43
2018-01-04T12:46:40.510Z,6.97
2018-01-04T12:49:07.961Z,6.23
2018-01-04T12:51:35.430Z,11.37
2018-01-04T12:54:02.913Z,6.80
2018-01-04T12:56:30.369Z,4.53
2018-01-04T12:58:57.826Z,5.17
2018-01-04T13:01:26.053Z,5.77
2018-01-04T13:03:53.516Z,3.77
2018-01-04T13:06:20.989Z,7.47
2018-01-04T13:08:48.465Z,3.33
2018-01-04T13:11:15.922Z,11.63
2018-01-04T13:13:43.378Z,8.87
2018-01-04T13:16:10.840Z,8.27
2018-01-04T13:18:38.306Z,12.30
2018-01-04T13:21:05.764Z,13.27
2018-01-04T13:23:33.218Z,19.97
2018-01-04T13:26:00.673Z,11.07
2018-01-04T13:28:28.128Z,10.33
2018-01-04T13:30:55.590Z,14.83
2018-01-04T13:33:23.063Z,15.43
2018-01-04T13:35:50.697Z,18.07
2018-01-04T13:38:18.159Z,23.13
2018-01-04T13:40:45.618Z,15.03
2018-01-04T13:43:13.074Z,26.37
2018-01-04T13:45:40.533Z,19.57
2018-01-04T13:48:07.989Z,19.47
2018-01-04T13:50:35.460Z,18.57
2018-01-04T13:53:02.909Z,17.53
2018-01-04T13:55:30.369Z,27.40
2018-01-04T13:57:57.821Z,18.93
2018-01-04T14:00:25.276Z,15.20
2018-01-04T14:02:52.736Z,17.47
2018-01-04T14:05:20.197Z,17.60
2018-01-04T14:07:47.649Z,15.73
2018-01-04T14:10:15.116Z,16.67
2018-01-04T14:12:43.344Z,16.73
2018-01-04T14:15:10.818Z,15.30
2018-01-04T14:17:38.288Z,19.47
2018-01-04T14:20:05.769Z,16.00
2018-01-04T14:22:33.228Z,13.30
2018-01-04T14:25:00.677Z,19.00
2018-01-04T14:27:28.136Z,18.83
2018-01-04T14:29:55.611Z,22.80
2018-01-04T14:32:23.089Z,16.60
2018-01-04T14:34:50.573Z,13.00
2018-01-04T14:37:18.080Z,14.10
2018-01-04T14:39:45.532Z,12.73
2018-01-04T14:42:13.050Z,12.57
2018-01-04T14:44:40.531Z,17.90
2018-01-04T14:47:08.006Z,14.37
2018-01-04T14:49:35.520Z,14.73
2018-01-04T14:52:03.079Z,13.63
2018-01-04T14:54:30.530Z,8.60
2018-01-04T14:56:57.995Z,9.90
2018-01-04T14:59:25.511Z,11.77
2018-01-04T15:01:52.980Z,13.13
2018-01-04T15:04:20.458Z,12.50
2018-01-04T15:06:47.995Z,14.57
2018-01-04T15:09:15.507Z,14.60
2018-01-04T15:11:43.134Z,16.70
2018-01-04T15:14:10.781Z,13.23
2018-01-04T15:16:38.237Z,19.47
2018-01-04T15:19:05.693Z,14.20
2018-01-04T15:21:33.160Z,14.83
2018-01-04T15:24:00.625Z,10.67
2018-01-04T15:26:28.186Z,13.27
2018-01-04T15:28:55.562Z,10.57
2018-01-04T15:31:23.020Z,16.10
2018-01-04T15:33:50.479Z,12.07
2018-01-04T15:36:17.920Z,11.00
2018-01-04T15:38:45.390Z,16.90
2018-01-04T15:41:12.858Z,14.90
2018-01-04T15:43:40.319Z,10.40
2018-01-04T15:46:07.771Z,17.17
2018-01-04T15:48:35.240Z,10.87
2018-01-04T15:51:02.700Z,12.63
2018-01-04T15:53:30.157Z,10.70
2018-01-04T15:55:57.609Z,9.60
2018-01-04T15:58:25.070Z,10.73
2018-01-04T16:00:52.524Z,11.33
2018-01-04T16:03:19.985Z,11.30
2018-01-04T16:05:47.444Z,13.90
2018-01-04T16:08:14.901Z,12.90
2018-01-04T16:10:42.368Z,13.47
2018-01-04T16:13:09.829Z,9.03
2018-01-04T16:15:37.286Z,8.23
2018-01-04T16:18:04.738Z,13.63
2018-01-04T16:20:32.193Z,10.63
2018-01-04T16:22:59.645Z,11.73
2018-01-04T16:25:27.109Z,9.73
2018-01-04T16:27:54.578Z,8.33
2018-01-04T16:30:22.030Z,8.43
2018-01-04T16:32:49.485Z,13.07
2018-01-04T16:35:16.961Z,7.53
2018-01-04T16:37:44.400Z,5.20
2018-01-04T16:40:11.882Z,12.10
2018-01-04T16:42:39.373Z,7.73
2018-01-04T16:45:06.818Z,7.80
2018-01-04T16:47:34.587Z,11.50
2018-01-04T16:50:02.058Z,6.80
2018-01-04T16:52:29.651Z,12.10
2018-01-04T16:54:57.131Z,15.43
2018-01-04T16:57:24.570Z,14.97
2018-01-04T16:59:52.052Z,11.27
2018-01-04T17:02:19.504Z,8.47
2018-01-04T17:04:46.941Z,9.43
2018-01-04T17:07:14.401Z,16.37
2018-01-04T17:09:41.885Z,9.13
2018-01-04T17:12:09.364Z,12.67
2018-01-04T17:14:36.835Z,13.17
2018-01-04T17:17:04.369Z,11.33
2018-01-04T17:19:31.825Z,13.67
2018-01-04T17:21:59.326Z,11.77
2018-01-04T17:24:26.782Z,12.57
2018-01-04T17:26:54.266Z,10.13
2018-01-04T17:29:21.700Z,13.33
2018-01-04T17:31:49.155Z,15.23
2018-01-04T17:34:16.608Z,11.03
2018-01-04T17:36:44.065Z,11.40
2018-01-04T17:39:11.519Z,13.43
2018-01-04T17:41:38.984Z,9.23
2018-01-04T17:44:06.429Z,8.97
2018-01-04T17:46:34.210Z,11.07
2018-01-04T17:49:01.672Z,15.10
2018-01-04T17:51:29.154Z,10.10
2018-01-04T17:53:56.614Z,11.50
2018-01-04T17:56:24.073Z,10.40
2018-01-04T17:58:51.657Z,13.20
2018-01-04T18:01:19.108Z,7.70
2018-01-04T18:03:46.572Z,7.80
2018-01-04T18:06:14.028Z,8.37
2018-01-04T18:08:41.494Z,6.87
2018-01-04T18:11:08.967Z,13.77
2018-01-04T18:13:36.442Z,9.60
2018-01-04T18:16:03.881Z,6.53
2018-01-04T18:18:31.352Z,8.07
2018-01-04T18:20:58.805Z,8.23
2018-01-04T18:23:26.260Z,16.20
2018-01-04T18:25:54.489Z,7.80
2018-01-04T18:28:21.962Z,10.10
2018-01-04T18:30:49.415Z,9.77
2018-01-04T18:33:16.916Z,7.80
2018-01-04T18:35:44.426Z,6.77
2018-01-04T18:38:12.217Z,7.83
2018-01-04T18:40:39.865Z,6.60
2018-01-04T18:43:07.358Z,9.43
2018-01-04T18:45:34.826Z,10.37
2018-01-04T18:48:02.289Z,9.03
2018-01-04T18:50:30.500Z,8.33
2018-01-04T18:52:58.022Z,10.90
2018-01-04T18:55:25.515Z,9.83
2018-01-04T18:57:52.995Z,10.30
2018-01-04T19:00:20.441Z,9.97
2018-01-04T19:02:47.897Z,8.30
2018-01-04T19:05:15.356Z,9.60
2018-01-04T19:07:42.835Z,8.40
2018-01-04T19:10:10.303Z,8.80
2018-01-04T19:12:37.767Z,8.60
2018-01-04T19:15:05.321Z,10.10
2018-01-04T19:17:32.810Z,5.43
2018-01-04T19:20:00.981Z,7.43
2018-01-04T19:22:28.464Z,6.50
2018-01-04T19:24:55.935Z,9.60
2018-01-04T19:27:23.418Z,7.90
2018-01-04T19:29:50.900Z,8.30
2018-01-04T19:32:18.337Z,5.00
2018-01-04T19:34:45.810Z,9.20
2018-01-04T19:37:13.269Z,10.37
2018-01-04T19:39:40.747Z,8.97
2018-01-04T19:42:08.186Z,9.07
2018-01-04T19:44:35.641Z,7.53
2018-01-04T19:47:03.083Z,11.03
2018-01-04T19:49:30.567Z,7.00
2018-01-04T19:51:58.014Z,7.67
2018-01-04T19:54:25.489Z,9.23
2018-01-04T19:56:53.987Z,6.93
2018-01-04T19:59:21.440Z,8.47
2018-01-04T20:01:49.010Z,11.87
2018-01-04T20:04:16.510Z,8.23
2018-01-04T20:06:43.922Z,5.30
2018-01-04T20:09:11.381Z,7.77
2018-01-04T20:11:38.853Z,8.47
2018-01-04T20:14:06.380Z,8.73
2018-01-04T20:16:33.797Z,7.50
2018-01-04T20:19:01.262Z,7.07
2018-01-04T20:21:28.721Z,8.97
2018-01-04T20:23:56.174Z,7.73
2018-01-04T20:26:23.634Z,9.97
2018-01-04T20:28:51.122Z,7.57
2018-01-04T20:31:18.796Z,12.80
2018-01-04T20:33:46.241Z,10.10
2018-01-04T20:36:13.714Z,8.77
2018-01-04T20:38:41.182Z,4.73
2018-01-04T20:41:08.977Z,6.57
2018-01-04T20:43:37.356Z,10.13
2018-01-04T20:46:04.855Z,9.27
2018-01-04T20:48:32.316Z,6.00
2018-01-04T20:50:59.790Z,8.57
2018-01-04T20:53:27.286Z,11.87
2018-01-04T20:55:54.730Z,8.73
2018-01-04T20:58:22.256Z,6.73
2018-01-04T21:00:49.801Z,5.47
2018-01-04T21:03:17.300Z,8.67
2018-01-04T21:05:44.792Z,10.90
2018-01-04T21:08:12.257Z,8.27
2018-01-04T21:10:39.724Z,6.00
2018-01-04T21:13:07.221Z,7.47
2018-01-04T21:15:36.282Z,8.73
2018-01-04T21:18:03.783Z,5.60
2018-01-04T21:20:32.018Z,9.73
2018-01-04T21:22:59.490Z,6.67
2018-01-04T21:25:26.960Z,8.47
2018-01-04T21:27:54.419Z,12.63
2018-01-04T21:30:21.878Z,10.00
2018-01-04T21:32:49.384Z,10.77
2018-01-04T21:35:16.844Z,8.07
2018-01-04T21:37:44.305Z,9.67
2018-01-04T21:40:12.334Z,10.03
2018-01-04T21:42:40.568Z,8.73
2018-01-04T21:45:08.050Z,9.70
2018-01-04T21:47:35.505Z,9.00
2018-01-04T21:50:02.961Z,8.63
2018-01-04T21:52:30.429Z,11.37
2018-01-04T21:54:57.904Z,14.63
2018-01-04T21:57:25.353Z,11.87
2018-01-04T21:59:52.820Z,11.63
2018-01-04T22:02:20.425Z,12.40
2018-01-04T22:04:47.891Z,12.70
2018-01-04T22:07:15.343Z,9.47
2018-01-04T22:09:42.805Z,9.27
2018-01-04T22:12:10.286Z,9.33
2018-01-04T22:14:37.734Z,7.63
2018-01-04T22:17:05.193Z,12.00
2018-01-04T22:19:32.637Z,7.17
2018-01-04T22:22:00.117Z,8.57
2018-01-04T22:24:27.578Z,9.23
2018-01-04T22:26:55.037Z,6.87
2018-01-04T22:29:22.496Z,8.63
2018-01-04T22:31:49.948Z,8.43
2018-01-04T22:34:17.400Z,7.40
2018-01-04T22:36:44.873Z,12.20
2018-01-04T22:39:12.325Z,9.93
2018-01-04T22:41:39.782Z,8.80
2018-01-04T22:44:07.238Z,8.10
2018-01-04T22:46:34.692Z,6.40
2018-01-04T22:49:02.140Z,6.90
2018-01-04T22:51:29.605Z,8.27
2018-01-04T22:53:57.056Z,6.03
2018-01-04T22:56:24.509Z,8.83
2018-01-04T22:58:51.961Z,8.30
2018-01-04T23:01:19.419Z,8.77
2018-01-04T23:03:46.875Z,5.63
2018-01-04T23:06:14.320Z,6.37
2018-01-04T23:08:41.784Z,4.40
2018-01-04T23:11:09.240Z,5.00
2018-01-04T23:13:36.696Z,5.13
2018-01-04T23:16:04.148Z,5.60
2018-01-04T23:18:31.614Z,6.80
2018-01-04T23:20:59.053Z,6.33
2018-01-04T23:23:26.508Z,3.50
2018-01-04T23:25:53.957Z,6.97
2018-01-04T23:28:22.175Z,5.60
2018-01-04T23:30:49.632Z,4.23
2018-01-04T23:33:17.096Z,5.07
2018-01-04T23:35:44.553Z,3.90
2018-01-04T23:38:12.018Z,7.27
2018-01-04T23:40:39.469Z,6.83
2018-01-04T23:43:06.930Z,4.33
2018-01-04T23:45:34.399Z,7.93
2018-01-04T23:48:01.866Z,8.67
2018-01-04T23:50:29.318Z,5.70
2018-01-04T23:52:56.773Z,7.30
2018-01-04T23:55:24.221Z,4.13
2018-01-04T23:57:51.681Z,3.87
